Time;durP1;ratioP1;P1;durP2;ratioP2;P2;SDS_P1;SDS_P2;PMS_P1;PMS_P2;Temp;Humidity;BMP_temperature;BMP_pressure;BME280_temperature;BME280_humidity;BME280_pressure;Samples;Min_cycle;Max_cycle;Signal;HPM_P1;HPM_P2
2022/03/22 00:00:55;;;;;;;0.10;0.10;;;7.90;58.60;;;;;;5040846;28;20482;-68
2022/03/22 00:05:49;;;;;;;0.10;0.10;;;7.80;59.20;;;;;;5005654;28;20046;-65
2022/03/22 00:08:14;;;;;;;0.10;0.10;;;7.70;59.60;;;;;;5005857;28;20026;-65
2022/03/22 00:10:40;;;;;;;0.25;0.25;;;7.60;59.60;;;;;;5005454;28;20113;-65
2022/03/22 00:13:06;;;;;;;0.10;0.10;;;7.60;59.90;;;;;;5009639;28;20030;-63
2022/03/22 00:15:33;;;;;;;0.10;0.10;;;7.60;59.70;;;;;;4992678;28;20543;-65
2022/03/22 00:17:59;;;;;;;0.17;0.17;;;7.50;59.80;;;;;;4990198;28;20030;-63
2022/03/22 00:20:25;;;;;;;0.10;0.10;;;7.60;59.80;;;;;;4990575;28;20084;-65
2022/03/22 00:22:51;;;;;;;0.40;0.40;;;7.60;59.90;;;;;;5008994;28;20475;-65
2022/03/22 00:25:17;;;;;;;0.20;0.20;;;7.50;59.90;;;;;;5002976;28;20045;-65
2022/03/22 00:27:51;;;;;;;5.68;2.50;;;7.50;60.40;;;;;;5004359;28;20026;-64
2022/03/22 00:30:32;;;;;;;0.10;0.10;;;7.40;60.60;;;;;;5009741;28;20038;-64
2022/03/22 00:33:00;;;;;;;0.10;0.10;;;7.40;61.20;;;;;;5007336;28;20100;-65
2022/03/22 00:35:29;;;;;;;0.10;0.10;;;7.30;61.50;;;;;;5003452;28;20026;-66
2022/03/22 00:37:57;;;;;;;0.20;0.20;;;7.30;61.20;;;;;;5009611;28;20483;-67
2022/03/22 00:40:25;;;;;;;0.10;0.10;;;7.30;60.80;;;;;;5011178;28;20056;-64
2022/03/22 00:42:53;;;;;;;0.10;0.10;;;7.30;60.40;;;;;;5008397;28;20053;-65
2022/03/22 00:45:26;;;;;;;0.10;0.10;;;7.40;60.00;;;;;;5008923;28;20602;-64
2022/03/22 00:47:54;;;;;;;0.32;0.32;;;7.40;60.40;;;;;;5009319;28;20022;-65
2022/03/22 00:50:26;;;;;;;0.10;0.10;;;7.40;59.90;;;;;;5009039;28;20029;-66
2022/03/22 00:52:52;;;;;;;0.10;0.10;;;7.20;60.70;;;;;;5011706;28;20033;-66
2022/03/22 00:55:21;;;;;;;2.35;2.15;;;7.20;61.40;;;;;;5028938;28;20264;-67
2022/03/22 00:57:47;;;;;;;8.50;2.28;;;7.00;62.10;;;;;;5029368;28;20029;-63
2022/03/22 01:00:14;;;;;;;0.10;0.10;;;6.90;63.10;;;;;;5012994;28;20265;-64
2022/03/22 01:02:45;;;;;;;0.10;0.10;;;6.80;64.00;;;;;;5008689;28;20076;-65
2022/03/22 01:05:16;;;;;;;0.10;0.10;;;6.70;64.70;;;;;;5001020;28;20048;-65
2022/03/22 01:07:43;;;;;;;1.60;1.58;;;6.60;65.60;;;;;;5009261;28;20160;-67
2022/03/22 01:10:11;;;;;;;0.10;0.10;;;6.60;67.00;;;;;;4995602;28;20042;-65
2022/03/22 01:12:39;;;;;;;0.10;0.10;;;6.60;67.40;;;;;;4989523;28;20034;-65
2022/03/22 01:15:11;;;;;;;0.10;0.10;;;6.70;68.70;;;;;;5008093;28;20037;-66
2022/03/22 01:17:40;;;;;;;0.10;0.10;;;6.80;69.10;;;;;;5008968;28;20553;-63
2022/03/22 01:20:09;;;;;;;0.20;0.20;;;6.80;69.10;;;;;;5006948;28;20029;-65
2022/03/22 01:22:38;;;;;;;0.10;0.10;;;6.90;69.60;;;;;;5008544;28;20038;-64
2022/03/22 01:25:09;;;;;;;0.10;0.10;;;6.90;70.40;;;;;;5008989;28;20584;-65
2022/03/22 01:27:36;;;;;;;0.10;0.10;;;6.90;72.10;;;;;;4997086;28;20053;-66
2022/03/22 01:30:04;;;;;;;0.15;0.15;;;6.90;74.50;;;;;;4989626;28;20030;-65
2022/03/22 01:32:30;;;;;;;0.15;0.15;;;6.90;75.80;;;;;;4989145;28;20036;-65
2022/03/22 01:34:56;;;;;;;0.10;0.10;;;6.70;77.80;;;;;;4996700;28;20022;-66
2022/03/22 01:37:22;;;;;;;0.10;0.10;;;6.60;83.60;;;;;;5002323;28;20502;-65
2022/03/22 01:39:48;;;;;;;0.10;0.10;;;6.40;91.60;;;;;;5008770;28;20384;-65
2022/03/22 01:42:13;;;;;;;0.10;0.10;;;6.40;94.40;;;;;;5008613;28;20352;-65
2022/03/22 01:44:39;;;;;;;0.43;0.43;;;6.30;93.80;;;;;;4995458;28;20124;-65
2022/03/22 01:47:05;;;;;;;0.10;0.10;;;6.30;96.40;;;;;;4992216;28;20034;-65
2022/03/22 01:49:31;;;;;;;0.52;0.52;;;6.40;99.90;;;;;;5004675;28;20069;-66
2022/03/22 01:51:56;;;;;;;0.20;0.20;;;6.50;99.90;;;;;;5016502;28;20033;-65
2022/03/22 01:54:23;;;;;;;0.10;0.10;;;6.50;99.80;;;;;;5004943;28;20108;-67
2022/03/22 01:56:49;;;;;;;0.13;0.13;;;6.60;99.90;;;;;;5012106;28;20058;-63
2022/03/22 01:59:15;;;;;;;0.50;0.50;;;6.60;99.90;;;;;;5012616;28;20566;-65
2022/03/22 02:07:16;;;;;;;0.10;0.10;;;6.20;99.90;;;;;;5032262;28;20032;-65
2022/03/22 02:09:42;;;;;;;0.10;0.10;;;6.10;99.90;;;;;;5016463;28;20029;-65
2022/03/22 02:12:09;;;;;;;0.45;0.45;;;6.20;99.90;;;;;;5011849;28;20407;-64
2022/03/22 02:14:35;;;;;;;0.82;0.82;;;6.10;99.90;;;;;;5002282;28;20030;-65
2022/03/22 02:17:11;;;;;;;1.00;1.00;;;6.00;99.90;;;;;;4992290;28;20072;-64
2022/03/22 02:19:38;;;;;;;0.95;0.95;;;6.00;99.90;;;;;;4996710;28;20026;-67
2022/03/22 02:22:08;;;;;;;1.58;1.48;;;6.00;99.90;;;;;;5011774;28;20071;-64
2022/03/22 02:24:35;;;;;;;1.63;1.55;;;6.00;99.90;;;;;;5011656;28;20025;-64
2022/03/22 02:27:01;;;;;;;0.20;0.20;;;6.00;99.90;;;;;;5009185;28;20026;-64
2022/03/22 02:29:27;;;;;;;0.10;0.10;;;6.00;99.90;;;;;;5011674;28;20437;-64
2022/03/22 02:31:53;;;;;;;0.10;0.10;;;5.80;99.90;;;;;;5011716;28;20024;-65
2022/03/22 02:34:19;;;;;;;0.10;0.10;;;5.60;99.90;;;;;;5011123;28;20022;-66
2022/03/22 02:36:46;;;;;;;0.47;0.47;;;5.50;99.90;;;;;;5009352;28;20030;-64
2022/03/22 02:39:12;;;;;;;3.95;2.60;;;5.50;99.90;;;;;;4992026;28;20023;-65
2022/03/22 02:41:38;;;;;;;0.45;0.45;;;5.50;99.90;;;;;;4992000;28;20031;-65
2022/03/22 02:44:04;;;;;;;0.10;0.10;;;5.50;99.90;;;;;;5007556;28;20041;-65
2022/03/22 02:46:30;;;;;;;0.35;0.35;;;5.60;99.90;;;;;;5011392;28;20046;-64
2022/03/22 02:48:56;;;;;;;0.10;0.10;;;5.50;99.90;;;;;;5011387;28;20050;-65
2022/03/22 02:51:22;;;;;;;0.10;0.10;;;5.50;99.90;;;;;;5007933;28;20026;-65
2022/03/22 02:53:48;;;;;;;0.10;0.10;;;5.40;99.90;;;;;;5008131;28;20050;-63
2022/03/22 02:56:14;;;;;;;0.70;0.70;;;5.50;99.90;;;;;;5012308;28;20044;-65
2022/03/22 02:58:40;;;;;;;0.10;0.10;;;5.60;99.90;;;;;;5013550;28;20030;-64
2022/03/22 03:01:06;;;;;;;0.80;0.80;;;5.70;99.90;;;;;;5007551;28;20037;-64
2022/03/22 03:03:33;;;;;;;0.10;0.10;;;5.80;99.90;;;;;;5010552;28;20034;-65
2022/03/22 03:06:00;;;;;;;0.20;0.20;;;5.80;99.90;;;;;;5009840;28;20030;-64
2022/03/22 03:08:26;;;;;;;0.45;0.45;;;5.70;99.90;;;;;;5013077;28;20021;-64
2022/03/22 03:10:53;;;;;;;0.98;0.82;;;5.60;99.90;;;;;;4996080;28;20303;-64
2022/03/22 03:13:19;;;;;;;0.20;0.20;;;5.40;99.90;;;;;;4995271;28;20018;-65
2022/03/22 03:15:44;;;;;;;1.35;1.35;;;5.40;99.90;;;;;;5010722;28;20032;-64
2022/03/22 03:18:10;;;;;;;0.10;0.10;;;5.30;99.90;;;;;;5008319;28;20029;-65
2022/03/22 03:20:36;;;;;;;0.10;0.10;;;5.40;99.90;;;;;;5010853;28;20104;-65
2022/03/22 03:23:02;;;;;;;1.95;1.60;;;5.40;99.90;;;;;;5010021;28;20030;-65
2022/03/22 03:25:28;;;;;;;0.10;0.10;;;5.40;99.90;;;;;;5009294;28;20483;-64
2022/03/22 03:27:54;;;;;;;0.10;0.10;;;5.50;99.90;;;;;;4991351;28;20388;-65
2022/03/22 03:30:19;;;;;;;2.58;2.38;;;5.70;99.90;;;;;;5005721;28;20407;-64
2022/03/22 03:32:45;;;;;;;0.28;0.28;;;5.60;99.90;;;;;;5010541;28;20025;-64
2022/03/22 03:35:11;;;;;;;0.10;0.10;;;5.60;99.90;;;;;;5004361;28;20030;-64
2022/03/22 03:37:37;;;;;;;0.90;0.90;;;5.40;99.90;;;;;;5009921;28;20030;-64
2022/03/22 03:40:04;;;;;;;0.10;0.10;;;5.30;99.90;;;;;;5010158;28;20021;-65
2022/03/22 03:42:30;;;;;;;2.72;2.50;;;5.30;99.90;;;;;;5010417;28;20033;-63
2022/03/22 03:47:40;;;;;;;1.13;1.02;;;5.20;99.90;;;;;;4994562;28;20108;-64
2022/03/22 03:50:07;;;;;;;3.33;3.13;;;5.20;99.90;;;;;;5010150;28;20092;-64
2022/03/22 03:52:35;;;;;;;0.10;0.10;;;5.20;99.90;;;;;;5007429;28;20033;-64
2022/03/22 03:55:03;;;;;;;0.10;0.10;;;5.20;99.90;;;;;;5010089;28;20029;-64
2022/03/22 03:57:30;;;;;;;1.40;1.40;;;5.20;99.90;;;;;;5010277;28;20018;-64
2022/03/22 03:59:56;;;;;;;0.75;0.75;;;5.30;99.90;;;;;;4998942;28;20157;-64
2022/03/22 04:02:23;;;;;;;5.20;4.78;;;5.30;99.90;;;;;;4996373;28;20026;-65
2022/03/22 04:04:52;;;;;;;0.28;0.28;;;5.30;99.90;;;;;;5018428;28;20236;-64
2022/03/22 04:07:22;;;;;;;3.83;2.33;;;5.30;99.90;;;;;;5024960;28;20025;-64
2022/03/22 04:09:49;;;;;;;0.10;0.10;;;5.40;99.90;;;;;;5006887;28;20025;-64
2022/03/22 04:12:15;;;;;;;0.10;0.10;;;5.40;99.90;;;;;;5009721;28;20069;-64
2022/03/22 04:14:41;;;;;;;0.40;0.40;;;5.50;99.90;;;;;;4999146;28;20084;-64
2022/03/22 04:17:08;;;;;;;1.88;1.73;;;5.40;99.90;;;;;;4990042;28;20038;-65
2022/03/22 04:19:35;;;;;;;0.20;0.20;;;5.30;99.90;;;;;;4994318;28;20140;-65
2022/03/22 04:22:02;;;;;;;0.40;0.40;;;5.30;99.90;;;;;;5014977;28;20190;-65
2022/03/22 04:24:28;;;;;;;0.10;0.10;;;5.30;99.90;;;;;;5009195;28;20133;-64
2022/03/22 04:26:55;;;;;;;0.40;0.40;;;5.40;99.90;;;;;;5008495;28;20034;-65
2022/03/22 04:34:50;;;;;;;0.10;0.10;;;5.40;99.90;;;;;;4992386;28;20053;-64
2022/03/22 04:37:16;;;;;;;0.10;0.10;;;5.30;99.90;;;;;;4993692;28;20490;-63
2022/03/22 04:39:44;;;;;;;0.32;0.32;;;5.10;99.90;;;;;;5009623;28;20124;-64
2022/03/22 04:42:10;;;;;;;0.10;0.10;;;5.10;99.90;;;;;;5005744;28;20042;-64
2022/03/22 04:44:37;;;;;;;1.20;1.20;;;5.10;99.90;;;;;;5008427;28;20030;-64
2022/03/22 04:47:03;;;;;;;0.20;0.20;;;5.10;99.90;;;;;;5009163;28;20078;-64
2022/03/22 04:49:32;;;;;;;0.10;0.10;;;5.10;99.90;;;;;;5008689;28;20445;-65
2022/03/22 04:57:26;;;;;;;0.10;0.10;;;5.00;99.90;;;;;;4994681;28;20198;-64
2022/03/22 04:59:53;;;;;;;0.40;0.40;;;5.00;99.90;;;;;;5004661;28;20116;-64
2022/03/22 05:02:19;;;;;;;0.10;0.10;;;5.00;99.90;;;;;;5008761;28;20037;-63
2022/03/22 05:04:45;;;;;;;3.35;1.33;;;5.00;99.90;;;;;;5008953;28;20065;-64
2022/03/22 05:07:11;;;;;;;0.70;0.70;;;5.00;99.90;;;;;;5007497;28;20053;-64
2022/03/22 05:09:37;;;;;;;0.50;0.50;;;5.00;99.90;;;;;;4997452;28;20022;-64
2022/03/22 05:12:03;;;;;;;0.57;0.57;;;4.90;99.90;;;;;;4989556;28;20026;-67
2022/03/22 05:14:28;;;;;;;0.10;0.10;;;4.90;99.90;;;;;;5007231;28;20043;-63
2022/03/22 05:16:56;;;;;;;0.80;0.80;;;4.90;99.90;;;;;;5014959;28;20038;-65
2022/03/22 05:19:22;;;;;;;0.30;0.30;;;4.80;99.90;;;;;;5002950;28;20034;-65
2022/03/22 05:21:48;;;;;;;0.38;0.38;;;4.90;99.90;;;;;;5011625;28;20030;-64
2022/03/22 05:24:14;;;;;;;0.10;0.10;;;4.90;99.90;;;;;;5012634;28;20084;-66
2022/03/22 05:26:40;;;;;;;0.10;0.10;;;4.90;99.90;;;;;;5013614;28;20029;-64
2022/03/22 05:29:06;;;;;;;5.15;4.68;;;4.90;99.90;;;;;;5009886;28;20026;-64
2022/03/22 05:31:33;;;;;;;0.10;0.10;;;4.80;99.90;;;;;;5007667;28;20032;-65
2022/03/22 05:33:59;;;;;;;0.40;0.40;;;4.90;99.90;;;;;;5012266;28;20072;-63
2022/03/22 05:36:25;;;;;;;0.10;0.10;;;4.80;99.90;;;;;;5010170;28;20026;-64
2022/03/22 05:38:52;;;;;;;0.98;0.98;;;4.80;99.90;;;;;;5011471;28;20037;-64
2022/03/22 05:41:18;;;;;;;0.30;0.30;;;4.80;99.90;;;;;;5007525;28;20481;-64
2022/03/22 05:43:44;;;;;;;0.10;0.10;;;4.80;99.90;;;;;;5008109;28;20030;-65
2022/03/22 05:46:10;;;;;;;0.10;0.10;;;4.80;99.90;;;;;;4997692;28;20025;-64
2022/03/22 05:48:39;;;;;;;0.20;0.20;;;5.00;99.90;;;;;;5001521;28;20022;-64
2022/03/22 05:51:05;;;;;;;0.20;0.20;;;5.00;99.90;;;;;;5001279;28;20029;-64
2022/03/22 05:53:31;;;;;;;0.47;0.47;;;5.00;99.90;;;;;;5001022;28;20101;-65
2022/03/22 05:55:57;;;;;;;0.10;0.10;;;5.00;99.90;;;;;;5003232;28;20032;-65
2022/03/22 05:58:23;;;;;;;0.25;0.25;;;5.00;99.90;;;;;;5003420;28;20391;-66
2022/03/22 06:00:49;;;;;;;0.22;0.22;;;5.00;99.90;;;;;;5007539;28;20026;-64
2022/03/22 06:03:15;;;;;;;0.10;0.10;;;4.90;99.90;;;;;;5005324;28;20077;-65
2022/03/22 06:05:42;;;;;;;0.60;0.38;;;4.80;99.90;;;;;;5020610;22;20061;-68
2022/03/22 06:08:08;;;;;;;0.10;0.10;;;4.90;99.90;;;;;;5011590;28;20204;-68
2022/03/22 06:10:34;;;;;;;0.10;0.10;;;4.90;99.90;;;;;;5004929;28;20533;-69
2022/03/22 06:12:59;;;;;;;0.63;0.63;;;5.00;99.90;;;;;;5010606;28;20033;-68
2022/03/22 06:15:27;;;;;;;0.10;0.10;;;5.00;99.90;;;;;;5005836;28;20403;-67
2022/03/22 06:17:58;;;;;;;0.82;0.70;;;5.10;99.90;;;;;;5008405;28;20518;-68
2022/03/22 06:20:33;;;;;;;0.10;0.10;;;5.10;99.90;;;;;;5009240;28;20030;-68
2022/03/22 06:23:00;;;;;;;0.10;0.10;;;5.20;99.90;;;;;;5007746;28;20069;-68
2022/03/22 06:25:26;;;;;;;0.20;0.20;;;5.30;99.90;;;;;;5008427;28;20045;-67
2022/03/22 06:27:53;;;;;;;1.60;1.55;;;5.30;99.90;;;;;;5006954;28;20372;-67
2022/03/22 06:30:20;;;;;;;0.10;0.10;;;5.30;99.90;;;;;;5005277;28;20034;-67
2022/03/22 06:32:48;;;;;;;0.10;0.10;;;5.30;99.90;;;;;;5007312;28;20033;-69
2022/03/22 06:35:15;;;;;;;1.25;1.15;;;5.40;99.90;;;;;;5008407;28;20038;-67
2022/03/22 06:37:40;;;;;;;4.13;3.83;;;5.50;99.90;;;;;;5013840;28;20033;-68
2022/03/22 06:40:09;;;;;;;0.90;0.90;;;5.10;99.90;;;;;;5010105;28;20026;-68
2022/03/22 06:42:35;;;;;;;0.47;0.47;;;4.90;99.90;;;;;;5009879;28;20113;-69
2022/03/22 06:45:03;;;;;;;2.83;2.63;;;5.10;99.90;;;;;;5005056;28;20026;-69
2022/03/22 06:47:30;;;;;;;0.10;0.10;;;5.20;99.90;;;;;;5008476;28;20541;-68
2022/03/22 06:49:56;;;;;;;0.10;0.10;;;5.40;99.90;;;;;;5009691;28;20040;-68
2022/03/22 06:52:22;;;;;;;0.75;0.75;;;5.50;99.90;;;;;;5006059;28;20549;-68
2022/03/22 06:54:47;;;;;;;0.10;0.10;;;5.50;99.90;;;;;;5010013;28;20045;-68
2022/03/22 06:57:13;;;;;;;0.60;0.60;;;5.70;99.90;;;;;;5007220;28;20557;-69
2022/03/22 06:59:39;;;;;;;0.10;0.10;;;5.90;99.90;;;;;;5010246;28;20068;-70
2022/03/22 07:02:07;;;;;;;0.30;0.30;;;5.80;99.90;;;;;;5003030;28;20117;-69
2022/03/22 07:04:33;;;;;;;1.58;1.48;;;5.90;99.90;;;;;;5010180;28;20034;-69
2022/03/22 07:06:58;;;;;;;0.65;0.65;;;6.00;99.90;;;;;;5012094;28;20104;-68
2022/03/22 07:09:24;;;;;;;0.10;0.10;;;6.00;99.90;;;;;;5010026;28;20048;-69
2022/03/22 07:11:50;;;;;;;1.40;1.30;;;5.90;99.90;;;;;;5008467;28;20037;-71
2022/03/22 07:14:22;;;;;;;0.55;0.55;;;5.90;99.90;;;;;;5009249;28;20523;-70
2022/03/22 07:16:48;;;;;;;0.10;0.10;;;5.90;99.90;;;;;;5009940;28;20479;-69
2022/03/22 07:19:15;;;;;;;0.10;0.10;;;6.00;99.90;;;;;;5003188;28;20096;-69
2022/03/22 07:21:42;;;;;;;0.10;0.10;;;6.00;99.90;;;;;;5010470;28;20117;-69
2022/03/22 07:24:09;;;;;;;4.60;4.20;;;6.00;99.90;;;;;;5003485;28;20029;-69
2022/03/22 07:26:35;;;;;;;0.32;0.32;;;6.10;99.90;;;;;;5007479;28;20033;-69
2022/03/22 07:29:00;;;;;;;0.30;0.30;;;6.10;99.90;;;;;;5003915;28;20036;-70
2022/03/22 07:31:26;;;;;;;1.05;1.02;;;6.30;99.90;;;;;;5003788;28;20029;-69
2022/03/22 07:33:52;;;;;;;0.63;0.63;;;6.40;99.90;;;;;;5005411;28;20117;-68
2022/03/22 07:36:18;;;;;;;2.28;2.08;;;6.40;99.90;;;;;;5007602;28;20443;-69
2022/03/22 07:38:43;;;;;;;1.85;1.77;;;6.50;99.90;;;;;;5005861;28;20030;-70
2022/03/22 07:41:10;;;;;;;0.10;0.10;;;6.60;99.90;;;;;;5004459;28;20037;-68
2022/03/22 07:43:37;;;;;;;1.20;1.10;;;6.70;99.90;;;;;;5008914;28;20025;-68
2022/03/22 07:46:03;;;;;;;0.50;0.50;;;6.80;99.90;;;;;;5007993;28;20050;-68
2022/03/22 07:48:29;;;;;;;0.20;0.20;;;7.00;99.90;;;;;;5009258;28;20018;-69
2022/03/22 07:53:41;;;;;;;0.30;0.30;;;7.10;99.90;;;;;;5005391;28;20049;-69
2022/03/22 07:56:07;;;;;;;0.10;0.10;;;7.30;99.90;;;;;;5006880;28;20022;-69
2022/03/22 07:58:33;;;;;;;0.40;0.40;;;7.40;99.90;;;;;;5004427;28;20034;-68
2022/03/22 08:00:58;;;;;;;0.20;0.20;;;7.50;99.90;;;;;;5006457;28;20022;-71
2022/03/22 08:03:24;;;;;;;4.00;3.72;;;7.60;99.90;;;;;;5010693;28;20109;-69
2022/03/22 08:05:49;;;;;;;0.10;0.10;;;7.60;99.90;;;;;;5013800;28;20040;-69
2022/03/22 08:08:15;;;;;;;1.00;1.00;;;7.70;99.90;;;;;;5008248;28;20407;-70
2022/03/22 08:10:44;;;;;;;0.10;0.10;;;7.80;99.90;;;;;;5012430;28;20029;-70
2022/03/22 08:13:10;;;;;;;0.40;0.40;;;7.80;99.50;;;;;;5009428;28;20048;-69
2022/03/22 08:15:36;;;;;;;0.10;0.10;;;8.00;99.10;;;;;;5010968;28;20029;-69
2022/03/22 08:18:02;;;;;;;4.47;4.10;;;8.00;98.80;;;;;;5010620;28;20230;-69
2022/03/22 08:20:30;;;;;;;0.10;0.10;;;8.10;98.60;;;;;;4991416;28;20100;-69
2022/03/22 08:23:03;;;;;;;0.20;0.20;;;8.20;98.30;;;;;;5002741;28;20052;-69
2022/03/22 08:25:38;;;;;;;5.82;4.50;;;8.20;97.60;;;;;;5018525;28;20475;-71
2022/03/22 08:28:06;;;;;;;1.23;1.23;;;8.30;98.20;;;;;;5013588;28;20034;-70
2022/03/22 08:30:33;;;;;;;1.33;1.23;;;8.40;97.40;;;;;;5007589;28;20546;-70
2022/03/22 08:33:00;;;;;;;0.10;0.10;;;8.50;97.20;;;;;;5004154;28;20033;-70
2022/03/22 08:35:27;;;;;;;0.30;0.30;;;8.60;96.80;;;;;;5005285;28;20178;-71
2022/03/22 08:37:54;;;;;;;0.10;0.10;;;8.70;96.90;;;;;;5003657;28;20493;-69
2022/03/22 08:40:20;;;;;;;1.13;1.08;;;8.80;96.30;;;;;;5007596;28;20034;-69
2022/03/22 08:42:48;;;;;;;0.10;0.10;;;8.80;95.60;;;;;;5008470;28;20030;-69
2022/03/22 08:45:17;;;;;;;0.10;0.10;;;8.90;95.30;;;;;;5006192;28;20042;-70
2022/03/22 08:47:45;;;;;;;0.10;0.10;;;9.00;94.80;;;;;;5010508;28;20021;-70
2022/03/22 08:50:16;;;;;;;2.28;2.10;;;9.00;94.40;;;;;;5017826;28;20467;-70
2022/03/22 08:52:42;;;;;;;0.75;0.75;;;9.10;94.10;;;;;;5007249;28;20022;-72
2022/03/22 08:55:13;;;;;;;0.20;0.20;;;9.20;93.90;;;;;;5006380;28;20018;-70
2022/03/22 08:57:40;;;;;;;0.30;0.30;;;9.40;93.50;;;;;;5002641;28;20041;-71
2022/03/22 09:00:10;;;;;;;0.55;0.55;;;9.50;92.90;;;;;;5009278;28;20068;-71
2022/03/22 09:02:37;;;;;;;0.10;0.10;;;9.60;92.90;;;;;;5003120;28;20364;-69
2022/03/22 09:07:50;;;;;;;0.20;0.20;;;9.70;92.10;;;;;;5012276;28;20076;-69
2022/03/22 09:10:18;;;;;;;0.17;0.17;;;9.70;91.90;;;;;;5005138;28;20026;-70
2022/03/22 09:12:44;;;;;;;0.10;0.10;;;9.80;91.30;;;;;;5001208;28;20039;-71
2022/03/22 09:15:11;;;;;;;0.10;0.10;;;10.00;90.60;;;;;;5004814;28;20131;-69
2022/03/22 09:17:37;;;;;;;0.85;0.85;;;10.10;90.20;;;;;;5005278;28;20064;-69
2022/03/22 09:20:04;;;;;;;0.30;0.30;;;10.20;90.20;;;;;;5011409;28;20029;-71
2022/03/22 09:22:30;;;;;;;0.38;0.38;;;10.30;88.70;;;;;;5009217;28;20017;-70
2022/03/22 09:24:56;;;;;;;0.10;0.10;;;10.70;88.60;;;;;;5011812;28;20411;-70
2022/03/22 09:27:23;;;;;;;6.28;5.70;;;10.30;88.10;;;;;;5006637;28;20117;-69
2022/03/22 09:29:48;;;;;;;0.95;0.95;;;10.40;88.20;;;;;;5003817;28;20491;-69
2022/03/22 09:32:14;;;;;;;0.10;0.10;;;10.50;86.80;;;;;;5004959;28;20049;-69
2022/03/22 09:34:40;;;;;;;0.35;0.35;;;10.50;86.60;;;;;;5008450;28;20033;-72
2022/03/22 09:37:07;;;;;;;0.10;0.10;;;10.60;86.20;;;;;;5004592;28;20586;-68
2022/03/22 09:39:34;;;;;;;0.10;0.10;;;10.60;86.20;;;;;;5005441;28;20096;-69
2022/03/22 09:42:02;;;;;;;1.00;1.00;;;10.70;86.00;;;;;;5005463;28;20049;-70
2022/03/22 09:44:29;;;;;;;0.10;0.10;;;11.00;86.50;;;;;;5002594;28;20034;-70
2022/03/22 09:46:56;;;;;;;0.47;0.47;;;11.00;85.40;;;;;;5007752;28;20160;-72
2022/03/22 09:49:22;;;;;;;0.10;0.10;;;11.10;85.70;;;;;;5006196;28;20075;-69
2022/03/22 09:51:48;;;;;;;1.02;1.02;;;11.20;84.00;;;;;;5014357;28;20018;-71
2022/03/22 09:54:18;;;;;;;0.73;0.73;;;11.20;84.20;;;;;;5001671;28;20037;-70
2022/03/22 09:56:45;;;;;;;1.13;1.13;;;11.40;83.20;;;;;;5007747;28;20022;-69
2022/03/22 09:59:12;;;;;;;0.13;0.13;;;11.50;82.80;;;;;;4997470;28;20048;-70
2022/03/22 10:01:38;;;;;;;0.50;0.50;;;11.60;80.70;;;;;;5004096;28;20084;-70
2022/03/22 10:04:09;;;;;;;0.30;0.30;;;11.70;79.50;;;;;;5004676;28;20032;-70
2022/03/22 10:06:35;;;;;;;0.13;0.13;;;11.80;79.10;;;;;;5009651;28;20030;-68
2022/03/22 10:09:05;;;;;;;0.15;0.15;;;11.80;78.00;;;;;;5016834;28;20030;-70
2022/03/22 10:11:36;;;;;;;0.57;0.57;;;12.00;76.60;;;;;;5013021;28;20196;-69
2022/03/22 10:14:02;;;;;;;0.10;0.10;;;12.00;76.70;;;;;;5005970;28;20522;-67
2022/03/22 10:16:28;;;;;;;0.15;0.15;;;12.20;76.00;;;;;;5009984;28;20480;-70
2022/03/22 10:18:53;;;;;;;0.10;0.10;;;12.20;75.20;;;;;;5011464;28;20026;-70
2022/03/22 10:21:19;;;;;;;0.10;0.10;;;12.40;75.20;;;;;;5009162;28;20029;-70
2022/03/22 10:23:53;;;;;;;0.20;0.20;;;12.60;74.70;;;;;;5016436;28;20037;-70
2022/03/22 10:26:19;;;;;;;0.70;0.70;;;12.70;73.30;;;;;;5011137;28;20476;-69
2022/03/22 10:28:53;;;;;;;0.35;0.35;;;12.70;71.90;;;;;;5011037;28;20037;-71
2022/03/22 10:31:19;;;;;;;;;;;12.80;68.00;;;;;;5001408;28;20037;-70
2022/03/22 10:33:50;;;;;;;0.10;0.10;;;12.70;66.80;;;;;;5009328;28;20270;-69
2022/03/22 10:36:18;;;;;;;0.30;0.30;;;12.60;67.10;;;;;;5009679;28;20026;-69
2022/03/22 10:39:13;;;;;;;0.10;0.10;;;12.70;65.90;;;;;;5017311;28;20030;-68
2022/03/22 10:41:42;;;;;;;3.25;2.95;;;12.90;64.80;;;;;;4999463;28;20045;-70
2022/03/22 10:44:15;;;;;;;0.10;0.10;;;13.00;64.30;;;;;;5004326;28;20495;-69
2022/03/22 10:46:45;;;;;;;;;;;13.10;63.90;;;;;;5008086;28;20057;-71
2022/03/22 10:49:18;;;;;;;0.10;0.10;;;13.20;62.30;;;;;;5010942;28;19917;-70
2022/03/22 10:51:46;;;;;;;0.50;0.50;;;13.20;62.30;;;;;;5011936;28;20067;-71
2022/03/22 10:54:20;;;;;;;0.10;0.10;;;13.20;60.40;;;;;;5006933;28;20026;-71
2022/03/22 10:56:49;;;;;;;0.10;0.10;;;13.30;59.20;;;;;;5004806;28;20113;-69
2022/03/22 10:59:17;;;;;;;1.55;1.45;;;13.40;58.60;;;;;;5008714;28;20022;-69
2022/03/22 11:01:44;;;;;;;0.40;0.40;;;13.40;58.20;;;;;;5008031;28;20026;-69
2022/03/22 11:04:15;;;;;;;0.10;0.10;;;13.50;57.00;;;;;;5002686;28;20029;-69
2022/03/22 11:06:41;;;;;;;0.10;0.10;;;13.60;56.30;;;;;;5006977;28;20108;-71
2022/03/22 11:09:07;;;;;;;0.10;0.10;;;13.70;55.40;;;;;;5008660;28;20628;-70
2022/03/22 11:11:33;;;;;;;1.73;1.65;;;13.70;55.40;;;;;;5011294;28;20053;-70
2022/03/22 11:14:00;;;;;;;0.63;0.63;;;13.70;55.40;;;;;;5008670;28;20030;-71
2022/03/22 11:16:28;;;;;;;0.25;0.25;;;13.80;53.80;;;;;;5009289;28;20079;-70
2022/03/22 11:19:00;;;;;;;0.10;0.10;;;13.90;54.60;;;;;;5008718;28;20040;-71
2022/03/22 11:21:27;;;;;;;0.10;0.10;;;14.10;54.50;;;;;;5004267;28;20363;-70
2022/03/22 11:24:09;;;;;;;2.20;1.92;;;14.20;54.30;;;;;;5024865;28;20065;-71
2022/03/22 11:26:44;;;;;;;0.10;0.10;;;14.40;54.40;;;;;;5008832;28;21153;-72
2022/03/22 11:29:15;;;;;;;0.20;0.20;;;14.50;52.50;;;;;;5003686;28;20020;-72
2022/03/22 11:31:42;;;;;;;0.25;0.25;;;14.30;52.20;;;;;;5003594;28;20034;-71
2022/03/22 11:34:09;;;;;;;0.10;0.10;;;14.40;52.90;;;;;;5007394;28;20033;-71
2022/03/22 11:36:46;;;;;;;0.30;0.30;;;14.60;52.10;;;;;;5005530;28;20031;-70
2022/03/22 11:42:20;;;;;;;0.15;0.15;;;14.70;49.70;;;;;;5006039;28;20133;-72
2022/03/22 11:44:56;;;;;;;0.10;0.10;;;14.60;49.50;;;;;;5008902;28;20034;-71
2022/03/22 11:47:22;;;;;;;0.98;0.93;;;14.70;50.10;;;;;;5006591;28;20022;-69
2022/03/22 11:49:49;;;;;;;0.28;0.28;;;14.70;49.60;;;;;;5000963;28;20049;-68
2022/03/22 11:52:16;;;;;;;0.10;0.10;;;14.70;49.60;;;;;;5009228;28;20388;-70
2022/03/22 11:54:53;;;;;;;0.30;0.30;;;14.90;48.90;;;;;;5008631;28;20041;-68
2022/03/22 11:57:19;;;;;;;0.10;0.10;;;14.80;48.20;;;;;;5010315;28;20049;-69
2022/03/22 11:59:47;;;;;;;0.10;0.10;;;15.00;48.00;;;;;;5004957;28;20483;-69
2022/03/22 12:02:17;;;;;;;0.10;0.10;;;15.10;47.30;;;;;;5006902;28;20041;-67
2022/03/22 12:04:54;;;;;;;0.85;0.85;;;15.20;47.70;;;;;;5023844;22;20120;-66
2022/03/22 12:07:29;;;;;;;0.10;0.10;;;15.30;48.20;;;;;;5037769;28;20562;-68
2022/03/22 12:10:07;;;;;;;0.20;0.20;;;15.10;47.70;;;;;;5048144;28;20223;-66
2022/03/22 12:12:34;;;;;;;0.15;0.15;;;15.10;48.00;;;;;;5041658;28;20571;-66
2022/03/22 12:15:02;;;;;;;3.15;2.92;;;15.10;48.30;;;;;;5042924;28;20115;-71
2022/03/22 12:17:29;;;;;;;0.10;0.10;;;15.10;48.50;;;;;;5044770;28;20495;-69
2022/03/22 12:19:59;;;;;;;2.78;2.58;;;15.20;48.70;;;;;;5049157;28;20025;-68
2022/03/22 12:22:26;;;;;;;0.28;0.28;;;15.20;49.50;;;;;;5046700;28;20086;-69
2022/03/22 12:24:52;;;;;;;2.15;2.05;;;15.30;49.40;;;;;;5047173;28;20516;-68
2022/03/22 12:27:17;;;;;;;1.15;1.10;;;15.30;49.30;;;;;;5047543;28;20029;-68
2022/03/22 12:29:45;;;;;;;0.43;0.43;;;15.30;50.10;;;;;;5047658;28;20021;-68
2022/03/22 12:32:16;;;;;;;1.10;1.10;;;15.40;50.00;;;;;;5043174;28;20090;-68
2022/03/22 12:34:43;;;;;;;0.20;0.20;;;15.50;49.30;;;;;;5039688;28;20021;-66
2022/03/22 12:37:11;;;;;;;0.10;0.10;;;15.50;49.60;;;;;;5040826;28;20100;-67
2022/03/22 12:39:38;;;;;;;0.75;0.75;;;15.50;49.60;;;;;;5049740;28;20032;-68
2022/03/22 12:42:06;;;;;;;0.10;0.10;;;16.00;49.80;;;;;;5038255;28;20111;-67
2022/03/22 12:44:32;;;;;;;0.20;0.20;;;15.50;49.00;;;;;;5041902;28;20017;-67
2022/03/22 12:46:59;;;;;;;4.32;3.92;;;15.40;48.50;;;;;;5050349;28;20025;-68
2022/03/22 12:49:25;;;;;;;0.10;0.10;;;15.40;48.40;;;;;;5042376;28;20028;-67
2022/03/22 12:51:50;;;;;;;0.10;0.10;;;15.60;48.10;;;;;;5030386;28;20029;-66
2022/03/22 12:54:17;;;;;;;0.20;0.20;;;15.80;48.00;;;;;;5032137;28;20026;-68
2022/03/22 12:56:47;;;;;;;2.42;2.30;;;16.10;47.70;;;;;;5041004;28;20126;-67
2022/03/22 12:59:19;;;;;;;1.17;1.10;;;16.60;47.40;;;;;;5028798;28;20780;-68
2022/03/22 13:01:45;;;;;;;0.10;0.10;;;17.20;46.00;;;;;;5030220;28;20048;-66
2022/03/22 13:04:11;;;;;;;1.65;1.25;;;18.70;44.40;;;;;;5029623;28;20479;-69
2022/03/22 13:06:36;;;;;;;1.13;1.08;;;20.30;42.60;;;;;;5035306;28;20111;-68
2022/03/22 13:11:47;;;;;;;0.10;0.10;;;22.40;39.40;;;;;;5049582;28;20051;-66
2022/03/22 13:16:58;;;;;;;1.80;0.50;;;23.60;37.00;;;;;;5039384;28;20079;-69
2022/03/22 13:19:31;;;;;;;0.17;0.17;;;23.20;36.20;;;;;;5047667;28;20443;-69
2022/03/22 13:21:56;;;;;;;0.00;0.00;;;22.80;36.70;;;;;;5057532;28;20028;-68
2022/03/22 13:24:26;;;;;;;0.20;0.20;;;24.10;35.80;;;;;;5058459;28;20048;-68
2022/03/22 13:26:57;;;;;;;0.10;0.10;;;24.30;34.70;;;;;;5029706;28;20487;-68
2022/03/22 13:29:25;;;;;;;1.60;1.33;;;23.80;34.10;;;;;;5041312;28;20029;-70
2022/03/22 13:32:07;;;;;;;0.00;0.00;;;25.30;33.80;;;;;;5049391;28;20047;-70